createdAt,value
2023-04-10T00:01:22.392Z,34.97
2023-04-10T00:06:24.981Z,36.97
2023-04-10T00:11:28.023Z,31.98
2023-04-10T00:16:30.716Z,39.28
2023-04-10T00:21:33.445Z,41.35
2023-04-10T00:26:37.296Z,38.38
2023-04-10T00:31:40.390Z,38.15
2023-04-10T00:36:46.385Z,44.15
2023-04-10T00:46:51.787Z,45.90
2023-04-10T00:51:58.344Z,45.30
2023-04-10T00:57:01.770Z,42.85
2023-04-10T01:02:04.899Z,42.30
2023-04-10T01:07:19.036Z,38.67
2023-04-10T01:12:43.520Z,42.38
2023-04-10T01:18:15.712Z,37.72
2023-04-10T01:23:36.843Z,40.58
2023-04-10T01:29:00.462Z,44.35
2023-04-10T01:34:17.544Z,44.05
2023-04-10T01:39:23.197Z,43.22
2023-04-10T01:44:47.017Z,35.63
2023-04-10T01:49:50.907Z,36.00
2023-04-10T01:54:53.993Z,35.45
2023-04-10T02:00:07.052Z,41.17
2023-04-10T02:05:17.760Z,37.47
2023-04-10T02:10:28.697Z,36.85
2023-04-10T02:15:34.446Z,39.47
2023-04-10T02:20:37.461Z,34.40
2023-04-10T02:25:40.018Z,37.75
2023-04-10T02:30:42.688Z,32.05
2023-04-10T02:35:48.642Z,38.22
2023-04-10T02:40:52.120Z,37.22
2023-04-10T02:46:00.979Z,35.85
2023-04-10T02:51:09.082Z,39.55
2023-04-10T02:56:12.863Z,34.85
2023-04-10T03:01:16.431Z,32.90
2023-04-10T03:06:26.148Z,31.80
2023-04-10T03:11:30.676Z,31.77
2023-04-10T03:16:33.561Z,31.25
2023-04-10T03:21:39.051Z,34.55
2023-04-10T03:26:43.443Z,28.42
2023-04-10T03:31:47.744Z,30.58
2023-04-10T03:36:51.491Z,25.45
2023-04-10T03:41:54.954Z,35.33
2023-04-10T03:47:00.174Z,29.73
2023-04-10T03:52:21.356Z,31.13
2023-04-10T03:57:24.268Z,30.63
2023-04-10T04:02:31.646Z,31.83
2023-04-10T04:07:35.930Z,28.35
2023-04-10T04:13:06.356Z,30.77
2023-04-10T04:18:34.985Z,27.92
2023-04-10T04:24:12.976Z,30.70
2023-04-10T04:29:34.442Z,28.90
2023-04-10T04:34:53.665Z,30.13
2023-04-10T04:39:57.400Z,32.80
2023-04-10T04:45:00.164Z,33.73
2023-04-10T04:50:23.157Z,32.00
2023-04-10T04:55:31.792Z,32.05
2023-04-10T05:00:55.211Z,35.10
2023-04-10T05:06:07.755Z,31.80
2023-04-10T05:11:23.703Z,33.47
2023-04-10T05:16:44.936Z,33.05
2023-04-10T05:22:27.589Z,39.70
2023-04-10T05:28:02.691Z,31.90
2023-04-10T05:33:24.371Z,31.30
2023-04-10T05:38:46.505Z,43.40
2023-04-10T05:44:00.202Z,31.27
2023-04-10T05:49:21.339Z,32.30
2023-04-10T05:54:50.221Z,38.03
2023-04-10T06:00:18.079Z,34.38
2023-04-10T06:05:47.010Z,37.95
2023-04-10T06:11:08.829Z,35.75
2023-04-10T06:16:11.903Z,36.25
2023-04-10T06:21:14.715Z,32.08
2023-04-10T06:26:17.389Z,31.33
2023-04-10T06:31:24.443Z,35.10
2023-04-10T06:36:27.708Z,34.15
2023-04-10T06:41:38.748Z,29.38
2023-04-10T06:46:50.312Z,29.08
2023-04-10T06:51:53.045Z,29.50
2023-04-10T06:56:59.754Z,28.45
2023-04-10T07:02:05.536Z,32.28
2023-04-10T07:07:13.464Z,29.13
2023-04-10T07:12:16.571Z,29.20
2023-04-10T07:17:19.332Z,22.63
2023-04-10T07:22:22.405Z,27.50
2023-04-10T07:27:25.158Z,26.50
2023-04-10T07:32:30.362Z,25.85
2023-04-10T07:37:33.382Z,26.50
2023-04-10T07:42:36.408Z,25.35
2023-04-10T07:47:39.129Z,25.40
2023-04-10T07:52:42.915Z,28.40
2023-04-10T07:57:45.689Z,28.92
2023-04-10T08:02:51.611Z,29.20
2023-04-10T08:07:54.246Z,29.23
2023-04-10T08:12:56.852Z,24.88
2023-04-10T08:17:59.799Z,24.98
2023-04-10T08:23:16.501Z,21.85
2023-04-10T08:28:22.708Z,19.55
2023-04-10T08:33:25.404Z,21.20
2023-04-10T08:38:28.173Z,24.33
2023-04-10T08:43:34.629Z,18.38
2023-04-10T08:48:55.889Z,19.65
2023-04-10T08:54:09.006Z,20.73
2023-04-10T08:59:12.249Z,26.65
2023-04-10T09:04:16.939Z,22.30
2023-04-10T09:09:19.775Z,20.23
2023-04-10T09:14:33.290Z,22.85
2023-04-10T09:19:36.131Z,20.33
2023-04-10T09:24:43.513Z,19.17
2023-04-10T09:29:49.832Z,21.38
2023-04-10T09:34:56.601Z,24.65
2023-04-10T09:39:59.570Z,20.27
2023-04-10T09:45:04.681Z,26.13
2023-04-10T09:50:07.828Z,38.95
2023-04-10T09:55:17.272Z,31.17
2023-04-10T10:00:20.780Z,26.15
2023-04-10T10:05:28.082Z,23.33
2023-04-10T10:10:30.918Z,23.27
2023-04-10T10:15:38.910Z,19.13
2023-04-10T10:20:46.240Z,24.55
2023-04-10T10:25:53.834Z,23.20
2023-04-10T10:30:56.571Z,21.50
2023-04-10T10:36:00.894Z,21.20
2023-04-10T10:41:21.528Z,18.58
2023-04-10T10:46:45.653Z,20.80
2023-04-10T10:51:50.094Z,19.98
2023-04-10T10:56:52.900Z,18.23
2023-04-10T11:02:18.407Z,18.73
2023-04-10T11:07:21.777Z,20.48
2023-04-10T11:12:26.004Z,25.83
2023-04-10T11:23:12.636Z,22.90
2023-04-10T11:28:34.220Z,21.92
2023-04-10T11:33:37.477Z,25.60
2023-04-10T11:38:41.409Z,21.52
2023-04-10T11:43:44.303Z,17.83
2023-04-10T11:48:47.101Z,29.45
2023-04-10T11:53:50.012Z,17.95
2023-04-10T11:58:54.690Z,18.67
2023-04-10T12:03:58.107Z,15.68
2023-04-10T12:09:01.316Z,28.33
2023-04-10T12:14:04.186Z,29.35
2023-04-10T12:19:07.590Z,17.80
2023-04-10T12:24:10.415Z,20.45
2023-04-10T12:29:13.297Z,13.43
2023-04-10T12:34:20.022Z,15.43
2023-04-10T12:39:24.234Z,58.13
2023-04-10T12:49:29.776Z,12.17
2023-04-10T12:54:36.977Z,14.52
2023-04-10T12:59:44.802Z,13.75
2023-04-10T13:04:48.702Z,14.07
2023-04-10T13:09:51.674Z,18.42
2023-04-10T13:14:54.802Z,16.85
2023-04-10T13:19:57.654Z,14.48
2023-04-10T13:25:00.466Z,10.27
2023-04-10T13:30:03.554Z,10.88
2023-04-10T13:35:07.312Z,15.43
2023-04-10T13:40:10.323Z,12.07
2023-04-10T13:45:13.060Z,11.20
2023-04-10T13:50:15.887Z,9.00
2023-04-10T13:55:19.594Z,12.27
2023-04-10T14:00:22.318Z,9.75
2023-04-10T14:05:25.254Z,16.95
2023-04-10T14:10:28.015Z,13.90
2023-04-10T14:15:30.711Z,13.95
2023-04-10T14:20:33.473Z,11.63
2023-04-10T14:25:36.184Z,11.95
2023-04-10T14:30:39.073Z,14.75
2023-04-10T14:35:41.926Z,8.45
2023-04-10T14:40:48.620Z,10.63
2023-04-10T14:45:51.443Z,14.93
2023-04-10T14:50:55.684Z,14.35
2023-04-10T14:55:58.422Z,12.02
2023-04-10T15:01:01.320Z,14.00
2023-04-10T15:06:04.738Z,35.47
2023-04-10T15:11:07.916Z,25.13
2023-04-10T15:16:12.006Z,27.67
2023-04-10T15:21:15.339Z,13.90
2023-04-10T15:26:17.976Z,12.93
2023-04-10T15:31:26.973Z,17.02
2023-04-10T15:36:30.091Z,13.52
2023-04-10T15:41:36.374Z,13.90
2023-04-10T15:46:39.516Z,14.95
2023-04-10T15:51:43.157Z,15.43
2023-04-10T15:56:45.950Z,16.60
2023-04-10T16:01:48.803Z,15.52
2023-04-10T16:06:51.932Z,10.38
2023-04-10T16:11:56.257Z,11.07
2023-04-10T16:22:02.127Z,13.13
2023-04-10T16:27:08.208Z,15.03
2023-04-10T16:32:10.893Z,14.07
2023-04-10T16:37:13.741Z,15.40
2023-04-10T16:42:16.316Z,13.70
2023-04-10T16:47:19.585Z,20.45
2023-04-10T16:52:22.154Z,16.08
2023-04-10T16:57:25.089Z,15.38
2023-04-10T17:02:29.780Z,15.77
2023-04-10T17:07:33.005Z,28.33
2023-04-10T17:12:36.978Z,16.85
2023-04-10T17:17:39.638Z,15.07
2023-04-10T17:22:42.363Z,21.60
2023-04-10T17:27:45.655Z,13.38
2023-04-10T17:32:49.261Z,16.98
2023-04-10T17:37:53.603Z,17.13
2023-04-10T17:42:56.316Z,10.30
2023-04-10T17:47:59.367Z,15.15
2023-04-10T17:53:04.084Z,17.30
2023-04-10T17:58:07.172Z,12.00
2023-04-10T18:03:28.188Z,12.38
2023-04-10T18:08:31.817Z,11.32
2023-04-10T18:13:34.574Z,9.03
2023-04-10T18:18:37.300Z,14.80
2023-04-10T18:23:41.635Z,15.25
2023-04-10T18:28:46.305Z,14.55
2023-04-10T18:34:03.621Z,12.43
2023-04-10T18:39:10.128Z,12.52
2023-04-10T18:44:12.760Z,15.70
2023-04-10T18:49:15.781Z,13.25
2023-04-10T18:54:18.411Z,15.32
2023-04-10T18:59:21.560Z,15.68
2023-04-10T19:04:45.563Z,14.07
2023-04-10T19:09:48.934Z,14.43
2023-04-10T19:14:51.569Z,11.95
2023-04-10T19:19:55.569Z,12.05
2023-04-10T19:24:58.228Z,9.80
2023-04-10T19:30:02.340Z,12.23
2023-04-10T19:35:05.530Z,14.48
2023-04-10T19:40:14.263Z,14.73
2023-04-10T19:45:17.497Z,14.13
2023-04-10T19:50:20.710Z,14.63
2023-04-10T19:55:23.959Z,20.50
2023-04-10T20:05:51.630Z,22.38
2023-04-10T20:10:56.089Z,27.00
2023-04-10T20:15:59.958Z,17.05
2023-04-10T20:21:02.785Z,16.58
2023-04-10T20:26:05.919Z,13.77
2023-04-10T20:31:10.956Z,18.05
2023-04-10T20:36:14.248Z,16.85
2023-04-10T20:41:16.830Z,16.52
2023-04-10T20:46:19.711Z,12.82
2023-04-10T20:51:23.046Z,15.80
2023-04-10T20:56:36.762Z,15.70
2023-04-10T21:01:45.971Z,13.90
2023-04-10T21:06:48.752Z,18.15
2023-04-10T21:11:51.663Z,17.05
2023-04-10T21:16:55.376Z,17.17
2023-04-10T21:21:58.744Z,24.83
2023-04-10T21:27:02.353Z,17.83
2023-04-10T21:32:06.566Z,35.83
2023-04-10T21:37:09.683Z,17.92
2023-04-10T21:42:13.972Z,15.77
2023-04-10T21:47:18.177Z,17.30
2023-04-10T21:52:22.382Z,18.67
2023-04-10T21:57:25.949Z,19.48
2023-04-10T22:02:29.974Z,24.47
2023-04-10T22:07:32.618Z,26.17
2023-04-10T22:12:36.803Z,20.30
2023-04-10T22:17:40.368Z,15.00
2023-04-10T22:22:43.880Z,27.17
2023-04-10T22:27:47.872Z,17.80
2023-04-10T22:32:50.614Z,15.47
2023-04-10T22:37:53.195Z,27.75
2023-04-10T22:42:55.766Z,34.92
2023-04-10T22:47:58.380Z,19.88
2023-04-10T22:53:01.790Z,14.40
2023-04-10T22:58:04.427Z,11.63
2023-04-10T23:03:08.554Z,16.17
2023-04-10T23:08:11.220Z,12.32
2023-04-10T23:13:13.838Z,10.52
2023-04-10T23:18:16.486Z,13.90
2023-04-10T23:23:19.726Z,13.45
2023-04-10T23:28:22.572Z,22.77
2023-04-10T23:33:25.243Z,13.15
2023-04-10T23:38:28.846Z,19.73
2023-04-10T23:43:33.210Z,11.60
2023-04-10T23:48:35.825Z,9.98
2023-04-10T23:53:59.229Z,11.95
2023-04-10T23:59:04.980Z,14.07
